createdAt,value
2018-05-13T00:03:01.402Z,60.00
2018-05-13T00:06:33.900Z,60.10
2018-05-13T00:10:07.147Z,60.20
2018-05-13T00:13:39.655Z,60.30
2018-05-13T00:17:12.151Z,60.30
2018-05-13T00:20:44.647Z,60.40
2018-05-13T00:24:17.904Z,60.80
2018-05-13T00:27:50.397Z,60.80
2018-05-13T00:31:22.879Z,60.80
2018-05-13T00:34:55.362Z,61.00
2018-05-13T00:38:27.860Z,61.20
2018-05-13T00:42:00.353Z,61.50
2018-05-13T00:45:33.611Z,61.80
2018-05-13T00:49:06.089Z,61.70
2018-05-13T00:52:39.343Z,62.00
2018-05-13T00:56:12.608Z,62.20
2018-05-13T00:59:45.087Z,62.10
2018-05-13T01:03:18.392Z,62.30
2018-05-13T01:06:50.874Z,62.40
2018-05-13T01:10:23.365Z,62.50
2018-05-13T01:13:55.851Z,62.60
2018-05-13T01:17:28.334Z,63.30
2018-05-13T01:21:00.821Z,62.90
2018-05-13T01:24:34.079Z,63.10
2018-05-13T01:28:06.553Z,63.10
2018-05-13T01:31:39.052Z,63.20
2018-05-13T01:35:11.524Z,63.30
2018-05-13T01:38:44.014Z,63.30
2018-05-13T01:42:16.499Z,63.50
2018-05-13T01:45:49.047Z,63.60
2018-05-13T01:49:21.599Z,63.80
2018-05-13T01:52:54.912Z,64.10
2018-05-13T01:56:27.384Z,64.00
2018-05-13T01:59:59.871Z,64.10
2018-05-13T02:03:33.136Z,64.20
2018-05-13T02:07:05.667Z,64.20
2018-05-13T02:10:38.136Z,64.40
2018-05-13T02:14:11.408Z,64.80
2018-05-13T02:17:43.896Z,64.80
2018-05-13T02:21:16.376Z,64.90
2018-05-13T02:24:48.859Z,65.00
2018-05-13T02:28:21.342Z,65.10
2018-05-13T02:31:53.826Z,65.10
2018-05-13T02:35:26.319Z,65.30
2018-05-13T02:38:59.569Z,66.20
2018-05-13T02:42:32.080Z,65.60
2018-05-13T02:46:04.570Z,65.80
2018-05-13T02:49:37.061Z,65.90
2018-05-13T02:53:09.532Z,66.10
2018-05-13T02:56:42.021Z,67.30
2018-05-13T03:00:14.508Z,66.70
2018-05-13T03:03:47.006Z,66.80
2018-05-13T03:07:20.261Z,67.30
2018-05-13T03:10:52.731Z,67.30
2018-05-13T03:14:25.231Z,67.40
2018-05-13T03:17:57.712Z,67.60
2018-05-13T03:21:30.211Z,67.70
2018-05-13T03:25:02.704Z,67.80
2018-05-13T03:28:35.199Z,68.00
2018-05-13T03:32:08.443Z,68.30
2018-05-13T03:35:40.940Z,68.30
2018-05-13T03:39:13.444Z,68.40
2018-05-13T03:42:45.918Z,68.70
2018-05-13T03:46:18.407Z,69.00
2018-05-13T03:49:50.908Z,69.00
2018-05-13T03:53:23.389Z,69.00
2018-05-13T03:56:56.656Z,68.80
2018-05-13T04:00:29.153Z,68.90
2018-05-13T04:04:01.635Z,68.80
2018-05-13T04:07:39.956Z,68.80
2018-05-13T04:11:24.375Z,68.90
2018-05-13T04:19:07.533Z,69.00
2018-05-13T04:22:40.005Z,68.90
2018-05-13T04:26:12.495Z,69.00
2018-05-13T04:29:44.988Z,69.00
2018-05-13T04:33:17.462Z,68.90
2018-05-13T04:36:49.968Z,68.90
2018-05-13T04:40:22.441Z,68.90
2018-05-13T04:43:54.928Z,68.70
2018-05-13T04:47:27.400Z,68.60
2018-05-13T04:50:59.936Z,68.40
2018-05-13T04:54:33.180Z,67.70
2018-05-13T04:58:05.674Z,67.60
2018-05-13T05:01:38.175Z,67.30
2018-05-13T05:05:10.647Z,67.10
2018-05-13T05:08:43.119Z,66.70
2018-05-13T05:12:15.599Z,66.10
2018-05-13T05:15:48.091Z,65.90
2018-05-13T05:19:20.567Z,66.00
2018-05-13T05:22:53.049Z,66.00
2018-05-13T05:26:25.521Z,65.90
2018-05-13T05:29:58.001Z,65.80
2018-05-13T05:33:30.475Z,65.30
2018-05-13T05:37:02.961Z,65.00
2018-05-13T05:40:35.449Z,65.30
2018-05-13T05:44:07.937Z,64.00
2018-05-13T05:47:40.420Z,63.30
2018-05-13T05:51:12.896Z,62.60
2018-05-13T05:58:42.115Z,61.50
2018-05-13T06:02:14.596Z,60.60
2018-05-13T06:05:47.084Z,60.60
2018-05-13T06:09:19.568Z,61.00
2018-05-13T06:12:52.048Z,61.10
2018-05-13T06:16:24.515Z,61.00
2018-05-13T06:19:57.004Z,60.50
2018-05-13T06:23:29.496Z,60.20
2018-05-13T06:27:01.984Z,60.00
2018-05-13T06:30:34.455Z,59.80
2018-05-13T06:34:06.928Z,59.90
2018-05-13T06:37:39.411Z,59.90
2018-05-13T06:41:11.881Z,59.80
2018-05-13T06:44:44.391Z,59.50
2018-05-13T06:48:16.875Z,59.10
2018-05-13T06:51:49.373Z,59.00
2018-05-13T06:55:21.840Z,58.70
2018-05-13T06:58:54.333Z,58.50
2018-05-13T07:02:26.816Z,58.30
2018-05-13T07:05:59.284Z,58.10
2018-05-13T07:09:31.772Z,57.80
2018-05-13T07:13:04.263Z,57.60
2018-05-13T07:16:36.749Z,57.20
2018-05-13T07:20:09.219Z,57.00
2018-05-13T07:23:41.699Z,56.70
2018-05-13T07:27:14.188Z,56.40
2018-05-13T07:30:46.660Z,56.40
2018-05-13T07:34:19.135Z,56.20
2018-05-13T07:37:51.630Z,56.20
2018-05-13T07:41:24.108Z,56.00
2018-05-13T07:44:56.579Z,55.70
2018-05-13T07:48:29.054Z,55.70
2018-05-13T07:52:01.549Z,55.20
2018-05-13T07:55:34.037Z,55.10
2018-05-13T07:59:06.532Z,54.90
2018-05-13T08:02:39.015Z,54.70
2018-05-13T08:06:11.562Z,54.50
2018-05-13T08:09:43.973Z,54.20
2018-05-13T08:13:16.451Z,54.00
2018-05-13T08:16:48.932Z,54.10
2018-05-13T08:20:21.473Z,53.90
2018-05-13T08:23:53.912Z,53.50
2018-05-13T08:27:26.400Z,53.30
2018-05-13T08:30:59.411Z,53.20
2018-05-13T08:34:31.887Z,53.00
2018-05-13T08:38:05.140Z,52.20
2018-05-13T08:41:37.630Z,52.10
2018-05-13T08:45:10.132Z,51.50
2018-05-13T08:48:42.609Z,51.40
2018-05-13T08:52:15.101Z,51.50
2018-05-13T08:55:47.604Z,51.30
2018-05-13T08:59:20.115Z,52.20
2018-05-13T09:02:52.592Z,51.20
2018-05-13T09:06:25.079Z,51.20
2018-05-13T09:09:57.555Z,50.90
2018-05-13T09:13:30.064Z,50.20
2018-05-13T09:17:02.552Z,49.50
2018-05-13T09:20:35.113Z,49.50
2018-05-13T09:24:08.308Z,49.50
2018-05-13T09:27:40.781Z,49.50
2018-05-13T09:31:13.272Z,47.80
2018-05-13T09:34:45.764Z,46.50
2018-05-13T09:38:18.252Z,45.60
2018-05-13T09:41:50.730Z,45.20
2018-05-13T09:45:23.229Z,44.80
2018-05-13T09:48:55.712Z,45.40
2018-05-13T09:52:28.200Z,44.80
2018-05-13T09:56:00.703Z,45.20
2018-05-13T09:59:33.964Z,45.40
2018-05-13T10:03:06.451Z,45.30
2018-05-13T10:06:38.944Z,45.60
2018-05-13T10:10:11.442Z,45.50
2018-05-13T10:13:43.924Z,44.90
2018-05-13T10:17:17.168Z,44.90
2018-05-13T10:20:49.654Z,44.90
2018-05-13T10:24:22.146Z,45.00
2018-05-13T10:27:55.024Z,44.60
2018-05-13T10:31:27.496Z,43.70
2018-05-13T10:34:59.996Z,44.00
2018-05-13T10:38:32.534Z,43.80
2018-05-13T10:42:05.776Z,43.50
2018-05-13T10:45:39.465Z,43.30
2018-05-13T10:49:11.983Z,43.30
2018-05-13T10:52:44.468Z,42.90
2018-05-13T10:56:16.948Z,42.80
2018-05-13T10:59:49.443Z,42.60
2018-05-13T11:03:21.928Z,42.20
2018-05-13T11:06:54.399Z,42.10
2018-05-13T11:10:26.902Z,42.10
2018-05-13T11:13:59.398Z,41.80
2018-05-13T11:17:32.656Z,41.30
2018-05-13T11:21:05.136Z,41.30
2018-05-13T11:24:37.623Z,41.30
2018-05-13T11:28:10.106Z,41.30
2018-05-13T11:31:42.597Z,41.30
2018-05-13T11:35:15.068Z,41.60
2018-05-13T11:38:47.544Z,41.40
2018-05-13T11:42:20.028Z,40.90
2018-05-13T11:45:52.496Z,40.10
2018-05-13T11:49:24.977Z,39.50
2018-05-13T11:52:57.464Z,39.50
2018-05-13T11:56:30.031Z,38.50
2018-05-13T12:00:02.697Z,37.90
2018-05-13T12:03:35.940Z,37.80
2018-05-13T12:07:08.420Z,37.70
2018-05-13T12:10:41.256Z,36.80
2018-05-13T12:14:13.748Z,37.00
2018-05-13T12:17:47.001Z,37.50
2018-05-13T12:21:20.252Z,37.30
2018-05-13T12:24:53.503Z,37.40
2018-05-13T12:28:25.976Z,37.30
2018-05-13T12:31:58.452Z,36.70
2018-05-13T12:35:30.920Z,35.80
2018-05-13T12:39:03.425Z,36.20
2018-05-13T12:42:35.906Z,36.10
2018-05-13T12:46:08.391Z,36.20
2018-05-13T12:49:40.855Z,35.80
2018-05-13T12:53:13.344Z,35.80
2018-05-13T12:56:45.817Z,34.90
2018-05-13T13:00:18.300Z,34.80
2018-05-13T13:03:50.846Z,35.20
2018-05-13T13:07:23.289Z,35.70
2018-05-13T13:10:55.784Z,35.50
2018-05-13T13:14:28.256Z,35.30
2018-05-13T13:18:00.754Z,35.50
2018-05-13T13:21:33.233Z,35.50
2018-05-13T13:25:05.734Z,35.70
2018-05-13T13:28:38.236Z,35.30
2018-05-13T13:32:10.721Z,34.50
2018-05-13T13:35:43.222Z,33.50
2018-05-13T13:39:15.699Z,33.40
2018-05-13T13:42:48.221Z,32.50
2018-05-13T13:46:20.737Z,32.30
2018-05-13T13:49:59.842Z,32.30
2018-05-13T13:53:32.416Z,32.60
2018-05-13T13:57:04.823Z,33.00
2018-05-13T14:00:38.077Z,32.30
2018-05-13T14:04:10.567Z,32.20
2018-05-13T14:07:43.043Z,32.30
2018-05-13T14:11:15.525Z,32.10
2018-05-13T14:14:48.024Z,32.10
2018-05-13T14:18:20.492Z,32.20
2018-05-13T14:21:52.980Z,32.10
2018-05-13T14:25:25.470Z,32.30
2018-05-13T14:28:57.978Z,33.20
2018-05-13T14:32:30.522Z,33.90
2018-05-13T14:36:02.992Z,33.90
2018-05-13T14:39:35.488Z,33.60
2018-05-13T14:43:07.969Z,33.90
2018-05-13T14:46:40.475Z,34.10
2018-05-13T14:50:12.965Z,34.60
2018-05-13T14:53:45.455Z,34.20
2018-05-13T14:57:18.702Z,34.70
2018-05-13T15:00:51.193Z,34.60
2018-05-13T15:04:23.669Z,35.50
2018-05-13T15:07:56.133Z,36.00
2018-05-13T15:11:28.628Z,36.60
2018-05-13T15:15:01.120Z,38.20
2018-05-13T15:18:33.598Z,38.80
2018-05-13T15:22:06.089Z,39.00
2018-05-13T15:25:38.567Z,38.90
2018-05-13T15:29:11.072Z,39.20
2018-05-13T15:32:43.555Z,39.80
2018-05-13T15:36:16.029Z,40.80
2018-05-13T15:39:48.516Z,42.40
2018-05-13T15:43:21.013Z,42.40
2018-05-13T15:46:53.472Z,42.70
2018-05-13T15:50:25.967Z,42.50
2018-05-13T15:53:58.478Z,42.70
2018-05-13T15:57:32.092Z,42.60
2018-05-13T16:01:04.587Z,42.70
2018-05-13T16:04:37.068Z,43.10
2018-05-13T16:08:09.567Z,43.30
2018-05-13T16:11:42.048Z,43.60
2018-05-13T16:15:14.534Z,44.60
2018-05-13T16:18:47.100Z,44.10
2018-05-13T16:22:20.280Z,44.20
2018-05-13T16:25:53.536Z,44.70
2018-05-13T16:29:26.028Z,44.70
2018-05-13T16:32:58.512Z,47.60
2018-05-13T16:36:30.982Z,49.90
2018-05-13T16:40:03.473Z,51.20
2018-05-13T16:43:35.958Z,52.80
2018-05-13T16:47:08.481Z,53.70
2018-05-13T16:50:40.961Z,54.60
2018-05-13T16:54:13.464Z,55.00
2018-05-13T16:57:45.966Z,56.20
2018-05-13T17:01:18.477Z,57.00
2018-05-13T17:04:51.070Z,57.50
2018-05-13T17:08:23.579Z,57.90
2018-05-13T17:11:56.094Z,58.30
2018-05-13T17:15:28.569Z,58.50
2018-05-13T17:19:01.073Z,58.80
2018-05-13T17:22:33.564Z,59.20
2018-05-13T17:26:06.048Z,59.40
2018-05-13T17:29:38.588Z,59.60
2018-05-13T17:33:11.371Z,60.00
2018-05-13T17:36:44.288Z,60.50
2018-05-13T17:40:16.788Z,60.90
2018-05-13T17:43:49.329Z,61.50
2018-05-13T17:47:21.821Z,62.60
2018-05-13T17:50:54.342Z,63.20
2018-05-13T17:54:26.819Z,63.00
2018-05-13T17:57:59.372Z,63.50
2018-05-13T18:01:31.860Z,63.80
2018-05-13T18:05:04.341Z,64.10
2018-05-13T18:08:36.824Z,64.50
2018-05-13T18:12:09.325Z,65.10
2018-05-13T18:15:41.815Z,65.60
2018-05-13T18:19:14.297Z,65.80
2018-05-13T18:22:46.784Z,65.80
2018-05-13T18:26:19.263Z,65.70
2018-05-13T18:29:51.744Z,65.60
2018-05-13T18:33:24.224Z,65.50
2018-05-13T18:41:04.780Z,65.50
2018-05-13T18:44:37.294Z,65.30
2018-05-13T18:48:09.784Z,65.60
2018-05-13T18:51:42.356Z,66.20
2018-05-13T18:55:14.995Z,66.60
2018-05-13T18:58:48.536Z,66.80
2018-05-13T19:02:21.156Z,66.90
2018-05-13T19:05:53.692Z,67.60
2018-05-13T19:09:26.244Z,67.60
2018-05-13T19:12:58.738Z,67.60
2018-05-13T19:16:31.259Z,67.30
2018-05-13T19:20:04.195Z,67.20
2018-05-13T19:23:37.442Z,67.30
2018-05-13T19:27:09.954Z,67.30
2018-05-13T19:30:42.461Z,67.50
2018-05-13T19:34:15.746Z,67.70
2018-05-13T19:37:48.225Z,67.70
2018-05-13T19:41:20.715Z,67.90
2018-05-13T19:44:53.963Z,68.60
2018-05-13T19:48:26.456Z,68.70
2018-05-13T19:51:58.941Z,69.40
2018-05-13T19:55:31.428Z,70.00
2018-05-13T19:59:03.928Z,69.70
2018-05-13T20:02:36.419Z,70.00
2018-05-13T20:06:08.903Z,71.40
2018-05-13T20:09:41.387Z,81.30
2018-05-13T20:13:14.649Z,86.20
2018-05-13T20:16:47.145Z,86.00
2018-05-13T20:20:20.109Z,88.00
2018-05-13T20:23:52.601Z,89.30
2018-05-13T20:27:25.078Z,89.70
2018-05-13T20:30:57.656Z,90.10
2018-05-13T20:34:30.143Z,90.40
2018-05-13T20:38:02.639Z,90.80
2018-05-13T20:41:35.114Z,90.20
2018-05-13T20:45:07.829Z,90.00
2018-05-13T20:48:40.425Z,89.90
2018-05-13T20:52:13.734Z,88.90
2018-05-13T20:55:47.065Z,89.30
2018-05-13T20:59:19.563Z,89.20
2018-05-13T21:02:52.128Z,89.10
2018-05-13T21:06:24.618Z,88.90
2018-05-13T21:09:57.151Z,89.50
2018-05-13T21:13:29.659Z,89.50
2018-05-13T21:17:02.896Z,88.60
2018-05-13T21:20:35.383Z,88.60
2018-05-13T21:24:07.872Z,88.50
2018-05-13T21:27:40.375Z,88.70
2018-05-13T21:31:13.646Z,88.90
2018-05-13T21:34:46.146Z,88.90
2018-05-13T21:38:18.627Z,89.30
2018-05-13T21:41:51.105Z,90.00
2018-05-13T21:45:23.595Z,89.10
2018-05-13T21:48:56.078Z,89.10
2018-05-13T21:52:28.564Z,89.30
2018-05-13T21:56:01.037Z,89.40
2018-05-13T21:59:33.524Z,89.30
2018-05-13T22:03:06.003Z,89.50
2018-05-13T22:06:38.548Z,89.80
2018-05-13T22:10:11.028Z,90.10
2018-05-13T22:13:43.526Z,89.70
2018-05-13T22:17:16.012Z,89.20
2018-05-13T22:20:48.488Z,89.30
2018-05-13T22:24:20.987Z,89.60
2018-05-13T22:27:54.278Z,89.10
2018-05-13T22:31:26.765Z,89.10
2018-05-13T22:34:59.240Z,88.80
2018-05-13T22:38:31.728Z,88.20
2018-05-13T22:42:04.979Z,88.30
2018-05-13T22:45:38.377Z,87.80
2018-05-13T22:49:11.637Z,86.60
2018-05-13T22:52:44.134Z,86.60
2018-05-13T22:56:16.632Z,87.50
2018-05-13T22:59:49.104Z,88.10
2018-05-13T23:03:21.592Z,88.60
2018-05-13T23:06:54.084Z,88.60
2018-05-13T23:10:27.370Z,89.00
2018-05-13T23:13:59.849Z,89.00
2018-05-13T23:17:32.340Z,88.90
2018-05-13T23:21:04.828Z,89.00
2018-05-13T23:24:38.169Z,89.20
2018-05-13T23:28:10.660Z,88.80
2018-05-13T23:31:43.149Z,88.60
2018-05-13T23:35:15.639Z,88.40
2018-05-13T23:38:48.114Z,88.30
2018-05-13T23:42:20.624Z,88.20
2018-05-13T23:45:53.104Z,88.10
2018-05-13T23:49:27.115Z,87.90
2018-05-13T23:52:59.623Z,87.80
2018-05-13T23:56:32.903Z,87.90
